Kaprifol — 5BXX2 — position and weather

sailwx.info

Track history (hours):
 
Tides and Currents Weather Stations Pressure Air Temp Water Temp Dewpoint Dewpoint Depression Visibility Wind Speed Wind Dir Waves Ship Positions

Kaprifol

Last reported at 2015-Jul-05 08:33 UTC. Time now 2015-Jul-05 09:26 UTC.
Position N 53°25' E 004°27'.

Length 90 m; draft 5.2 m.

Type: Tanker. MMSI: 210445000.

Date/timePositionNaut miles runAvg speedWind from/ knotsBaromVisibWave heightAir tempDewpointWater temp
2015-Jul-05 08:33N 53°25' E 004°27'9 9.5
2015-Jul-05 07:33N 53°29' E 004°41'9 9.3
2015-Jul-05 06:33N 53°33' E 004°56'10 9.9
2015-Jul-05 05:33N 53°36' E 005°12'1111.2
2015-Jul-05 04:33N 53°39' E 005°30'1211.7
2015-Jul-05 03:32N 53°43' E 005°49'1111.6
2015-Jul-05 02:33N 53°46' E 006°07'1111.1
2015-Jul-05 01:33N 53°38' E 006°20'1110.7
2015-Jul-05 00:33N 53°35' E 006°37'1010.0
2015-Jul-04 23:33N 53°29' E 006°50'9 9.1
2015-Jul-04 22:33N 53°21' E 006°59'7 6.9
2015-Jul-04 21:34N 53°20' E 007°11'1 1.4
2015-Jul-04 20:31N 53°21' E 007°12'0 0.0
2015-Jul-04 19:10N 53°21' E 007°12'0 0.0
2015-Jul-04 18:28N 53°21' E 007°12'0 0.0
2015-Jul-04 17:31N 53°21' E 007°12'0 0.3
2015-Jul-04 16:34N 53°21' E 007°12'3 2.7
2015-Jul-04 15:33N 53°20' E 007°08'6 6.2
2015-Jul-04 14:33N 53°22' E 006°58'9 9.1
2015-Jul-04 13:33N 53°30' E 006°49'10 9.7
2015-Jul-04 12:33N 53°35' E 006°36'9 8.6
2015-Jul-04 11:33N 53°37' E 006°21'2 2.3
2015-Jul-04 10:30N 53°36' E 006°17'0 0.0
2015-Jul-04 09:33N 53°36' E 006°17'0 0.1
2015-Jul-04 08:33N 53°37' E 006°18'4 3.8
2015-Jul-04 07:33N 53°40' E 006°21'10 9.8
2015-Jul-04 06:33N 53°49' E 006°25'1511.7
2015-Jul-04 05:18N 53°53' E 006°49'912.1
2015-Jul-04 04:31N 53°55' E 007°05'1212.1
2015-Jul-04 03:33N 53°58' E 007°24'1010.4
2015-Jul-04 02:33N 53°57' E 007°41'1111.2
2015-Jul-04 01:33N 53°52' E 007°58'1111.0
2015-Jul-04 00:33N 53°45' E 008°13'10 9.5
2015-Jul-03 23:33N 53°39' E 008°25'7 6.9
2015-Jul-03 22:33N 53°34' E 008°33'0 0.1
2015-Jul-03 21:33N 53°34' E 008°33'0 0.0
2015-Jul-03 20:33N 53°34' E 008°33'0 0.0
2015-Jul-03 19:33N 53°34' E 008°33'0 0.0
2015-Jul-03 18:33N 53°34' E 008°33'0 0.0
2015-Jul-03 17:33N 53°34' E 008°33'0 0.0
2015-Jul-03 16:33N 53°34' E 008°33'0 0.0
2015-Jul-03 15:33N 53°34' E 008°33'0 0.0
2015-Jul-03 14:33N 53°34' E 008°33'0 0.0
2015-Jul-03 13:32N 53°34' E 008°33'0 0.0
2015-Jul-03 12:32N 53°34' E 008°33'0 0.0
2015-Jul-03 11:32N 53°34' E 008°33'0 0.0
2015-Jul-03 10:33N 53°34' E 008°33'0 0.1
2015-Jul-03 09:33N 53°34' E 008°33'3 2.5
2015-Jul-03 08:33N 53°36' E 008°30'1111.3
2015-Jul-03 07:33N 53°44' E 008°16'1110.5
2015-Jul-03 06:33N 53°51' E 008°03'1010.4
2015-Jul-03 05:33N 53°53' E 007°45'10 9.6
2015-Jul-03 04:30N 53°54' E 007°28'9 9.4
2015-Jul-03 03:32N 53°52' E 007°13'43 9.8
2015-Jul-02 23:07N 53°41' E 006°03'610.9
2015-Jul-02 22:33N 53°39' E 005°53'1111.3
2015-Jul-02 21:33N 53°36' E 005°35'1211.7
2015-Jul-02 20:33N 53°32' E 005°16'1212.2
2015-Jul-02 19:33N 53°28' E 004°57'1212.1
2015-Jul-02 18:33N 53°21' E 004°40'1212.5
2015-Jul-02 17:33N 53°10' E 004°30'1512.6
2015-Jul-02 16:22N 52°56' E 004°19'1012.5
2015-Jul-02 15:33N 52°47' E 004°11'1312.7
2015-Jul-02 14:33N 52°38' E 003°57'5510.6
2015-Jul-02 09:22N 51°58' E 002°54'10 8.9
2015-Jul-02 08:16N 51°51' E 002°44'8 8.9
2015-Jul-02 07:24N 51°45' E 002°36'9 9.3
2015-Jul-02 06:25N 51°38' E 002°27'910.0
2015-Jul-02 05:33N 51°31' E 002°18'1110.5
2015-Jul-02 04:33N 51°23' E 002°08'1110.8
2015-Jul-02 03:33N 51°13' E 002°00'1111.3
2015-Jul-02 02:33N 51°06' E 001°46'23 4.2
2015-Jul-01 21:15N 51°03' E 002°22'0 0.0
2015-Jul-01 20:17N 51°03' E 002°22'0 0.0
2015-Jul-01 10:26N 51°03' E 002°22'1 1.3
2015-Jul-01 09:27N 51°04' E 002°21'7 7.7
2015-Jul-01 08:33N 51°03' E 002°10'9 9.0
2015-Jul-01 07:33N 51°02' E 001°56'8 8.4
2015-Jul-01 06:33N 51°04' E 001°43'8 8.5
2015-Jul-01 05:33N 51°13' E 001°46'1111.4
2015-Jul-01 04:33N 51°22' E 001°56'1010.1
2015-Jul-01 03:33N 51°31' E 002°06'10 9.6
2015-Jul-01 02:34N 51°38' E 002°16'11 9.0
2015-Jul-01 01:22N 51°46' E 002°27'11 8.7
2015-Jul-01 00:09N 51°54' E 002°37'28 9.4
2015-Jun-30 21:08N 52°03' E 003°22'811.0
2015-Jun-30 20:26N 52°03' E 003°34'1011.6
2015-Jun-30 19:34N 52°03' E 003°50'1111.5
2015-Jun-30 18:34N 51°58' E 004°08'1211.5
2015-Jun-30 17:33N 51°51' E 004°22'9 8.6
2015-Jun-30 16:33N 51°48' E 004°35'7 6.8
2015-Jun-30 15:33N 51°42' E 004°35'0 0.3
2015-Jun-30 14:26N 51°41' E 004°35'0 0.0
2015-Jun-30 13:29N 51°41' E 004°35'0 0.0
2015-Jun-30 12:32N 51°41' E 004°35'0 0.0
2015-Jun-30 11:32N 51°41' E 004°35'0 0.0
2015-Jun-30 10:26N 51°41' E 004°35'0 0.0
2015-Jun-30 09:29N 51°41' E 004°35'0 0.0
2015-Jun-30 08:29N 51°41' E 004°35'0 0.0
2015-Jun-30 07:32N 51°41' E 004°35'0 0.0
2015-Jun-30 06:32N 51°41' E 004°35'0 0.0
2015-Jun-30 05:29N 51°41' E 004°35'0 0.0
2015-Jun-30 04:29N 51°41' E 004°35'0 0.0
2015-Jun-30 03:29N 51°41' E 004°35'0 0.0
2015-Jun-30 02:32N 51°41' E 004°35'0 0.0
2015-Jun-30 01:32N 51°41' E 004°35'0 0.0
2015-Jun-30 00:26N 51°41' E 004°35'0 0.1
2015-Jun-29 23:33N 51°41' E 004°36'6 6.4
2015-Jun-29 22:34N 51°48' E 004°37'8 7.5
2015-Jun-29 21:33N 51°50' E 004°26'8 7.6
2015-Jun-29 20:34N 51°54' E 004°16'8 8.4
2015-Jun-29 19:34N 51°59' E 004°05'8 8.5
2015-Jun-29 18:34N 52°01' E 003°51'10 9.7
2015-Jun-29 17:34N 52°11' E 003°46'1111.2
2015-Jun-29 16:33N 52°22' E 003°48'1010.5
2015-Jun-29 15:33N 52°32' E 003°52'10 9.8
2015-Jun-29 14:33N 52°42' E 003°55'9 9.4
2015-Jun-29 13:33N 52°51' E 003°58'9 9.1
2015-Jun-29 12:33N 52°59' E 004°03'1010.2
2015-Jun-29 11:34N 53°06' E 004°16'1110.7
2015-Jun-29 10:33N 53°15' E 004°26'1111.3
2015-Jun-29 09:33N 53°26' E 004°33'1111.3
2015-Jun-29 08:33N 53°36' E 004°40'1110.9
2015-Jun-29 07:34N 53°46' E 004°46'1010.5
2015-Jun-29 06:34N 53°56' E 004°52'1110.2
2015-Jun-29 05:31N 54°06' E 004°58'1110.5
2015-Jun-29 04:29N 54°17' E 004°58'  
Track history (hours):
 
Tides and Currents Weather Stations Pressure Air Temp Water Temp Dewpoint Dewpoint Depression Visibility Wind Speed Wind Dir Waves Ship Positions

Kaprifol

Last reported at 2015-Jul-05 08:33 UTC. Time now 2015-Jul-05 09:26 UTC.
Position N 53°25' E 004°27'.

Length 90 m; draft 5.2 m.

Type: Tanker. MMSI: 210445000.

Date/timePositionNaut miles runAvg speedWind from/ knotsBaromVisibWave heightAir tempDewpointWater temp
2015-Jul-05 08:33N 53°25' E 004°27'9 9.5
2015-Jul-05 07:33N 53°29' E 004°41'9 9.3
2015-Jul-05 06:33N 53°33' E 004°56'10 9.9
2015-Jul-05 05:33N 53°36' E 005°12'1111.2
2015-Jul-05 04:33N 53°39' E 005°30'1211.7
2015-Jul-05 03:32N 53°43' E 005°49'1111.6
2015-Jul-05 02:33N 53°46' E 006°07'1111.1
2015-Jul-05 01:33N 53°38' E 006°20'1110.7
2015-Jul-05 00:33N 53°35' E 006°37'1010.0
2015-Jul-04 23:33N 53°29' E 006°50'9 9.1
2015-Jul-04 22:33N 53°21' E 006°59'7 6.9
2015-Jul-04 21:34N 53°20' E 007°11'1 1.4
2015-Jul-04 20:31N 53°21' E 007°12'0 0.0
2015-Jul-04 19:10N 53°21' E 007°12'0 0.0
2015-Jul-04 18:28N 53°21' E 007°12'0 0.0
2015-Jul-04 17:31N 53°21' E 007°12'0 0.3
2015-Jul-04 16:34N 53°21' E 007°12'3 2.7
2015-Jul-04 15:33N 53°20' E 007°08'6 6.2
2015-Jul-04 14:33N 53°22' E 006°58'9 9.1
2015-Jul-04 13:33N 53°30' E 006°49'10 9.7
2015-Jul-04 12:33N 53°35' E 006°36'9 8.6
2015-Jul-04 11:33N 53°37' E 006°21'2 2.3
2015-Jul-04 10:30N 53°36' E 006°17'0 0.0
2015-Jul-04 09:33N 53°36' E 006°17'0 0.1
2015-Jul-04 08:33N 53°37' E 006°18'4 3.8
2015-Jul-04 07:33N 53°40' E 006°21'10 9.8
2015-Jul-04 06:33N 53°49' E 006°25'1511.7
2015-Jul-04 05:18N 53°53' E 006°49'912.1
2015-Jul-04 04:31N 53°55' E 007°05'1212.1
2015-Jul-04 03:33N 53°58' E 007°24'1010.4
2015-Jul-04 02:33N 53°57' E 007°41'1111.2
2015-Jul-04 01:33N 53°52' E 007°58'1111.0
2015-Jul-04 00:33N 53°45' E 008°13'10 9.5
2015-Jul-03 23:33N 53°39' E 008°25'7 6.9
2015-Jul-03 22:33N 53°34' E 008°33'0 0.1
2015-Jul-03 21:33N 53°34' E 008°33'0 0.0
2015-Jul-03 20:33N 53°34' E 008°33'0 0.0
2015-Jul-03 19:33N 53°34' E 008°33'0 0.0
2015-Jul-03 18:33N 53°34' E 008°33'0 0.0
2015-Jul-03 17:33N 53°34' E 008°33'0 0.0
2015-Jul-03 16:33N 53°34' E 008°33'0 0.0
2015-Jul-03 15:33N 53°34' E 008°33'0 0.0
2015-Jul-03 14:33N 53°34' E 008°33'0 0.0
2015-Jul-03 13:32N 53°34' E 008°33'0 0.0
2015-Jul-03 12:32N 53°34' E 008°33'0 0.0
2015-Jul-03 11:32N 53°34' E 008°33'0 0.0
2015-Jul-03 10:33N 53°34' E 008°33'0 0.1
2015-Jul-03 09:33N 53°34' E 008°33'3 2.5
2015-Jul-03 08:33N 53°36' E 008°30'1111.3
2015-Jul-03 07:33N 53°44' E 008°16'1110.5
2015-Jul-03 06:33N 53°51' E 008°03'1010.4
2015-Jul-03 05:33N 53°53' E 007°45'10 9.6
2015-Jul-03 04:30N 53°54' E 007°28'9 9.4
2015-Jul-03 03:32N 53°52' E 007°13'43 9.8
2015-Jul-02 23:07N 53°41' E 006°03'610.9
2015-Jul-02 22:33N 53°39' E 005°53'1111.3
2015-Jul-02 21:33N 53°36' E 005°35'1211.7
2015-Jul-02 20:33N 53°32' E 005°16'1212.2
2015-Jul-02 19:33N 53°28' E 004°57'1212.1
2015-Jul-02 18:33N 53°21' E 004°40'1212.5
2015-Jul-02 17:33N 53°10' E 004°30'1512.6
2015-Jul-02 16:22N 52°56' E 004°19'1012.5
2015-Jul-02 15:33N 52°47' E 004°11'1312.7
2015-Jul-02 14:33N 52°38' E 003°57'5510.6
2015-Jul-02 09:22N 51°58' E 002°54'10 8.9
2015-Jul-02 08:16N 51°51' E 002°44'8 8.9
2015-Jul-02 07:24N 51°45' E 002°36'9 9.3
2015-Jul-02 06:25N 51°38' E 002°27'910.0
2015-Jul-02 05:33N 51°31' E 002°18'1110.5
2015-Jul-02 04:33N 51°23' E 002°08'1110.8
2015-Jul-02 03:33N 51°13' E 002°00'1111.3
2015-Jul-02 02:33N 51°06' E 001°46'23 4.2
2015-Jul-01 21:15N 51°03' E 002°22'0 0.0
2015-Jul-01 20:17N 51°03' E 002°22'0 0.0
2015-Jul-01 10:26N 51°03' E 002°22'1 1.3
2015-Jul-01 09:27N 51°04' E 002°21'7 7.7
2015-Jul-01 08:33N 51°03' E 002°10'9 9.0
2015-Jul-01 07:33N 51°02' E 001°56'8 8.4
2015-Jul-01 06:33N 51°04' E 001°43'8 8.5
2015-Jul-01 05:33N 51°13' E 001°46'1111.4
2015-Jul-01 04:33N 51°22' E 001°56'1010.1
2015-Jul-01 03:33N 51°31' E 002°06'10 9.6
2015-Jul-01 02:34N 51°38' E 002°16'11 9.0
2015-Jul-01 01:22N 51°46' E 002°27'11 8.7
2015-Jul-01 00:09N 51°54' E 002°37'28 9.4
2015-Jun-30 21:08N 52°03' E 003°22'811.0
2015-Jun-30 20:26N 52°03' E 003°34'1011.6
2015-Jun-30 19:34N 52°03' E 003°50'1111.5
2015-Jun-30 18:34N 51°58' E 004°08'1211.5
2015-Jun-30 17:33N 51°51' E 004°22'9 8.6
2015-Jun-30 16:33N 51°48' E 004°35'7 6.8
2015-Jun-30 15:33N 51°42' E 004°35'0 0.3
2015-Jun-30 14:26N 51°41' E 004°35'0 0.0
2015-Jun-30 13:29N 51°41' E 004°35'0 0.0
2015-Jun-30 12:32N 51°41' E 004°35'0 0.0
2015-Jun-30 11:32N 51°41' E 004°35'0 0.0
2015-Jun-30 10:26N 51°41' E 004°35'0 0.0
2015-Jun-30 09:29N 51°41' E 004°35'0 0.0
2015-Jun-30 08:29N 51°41' E 004°35'0 0.0
2015-Jun-30 07:32N 51°41' E 004°35'0 0.0
2015-Jun-30 06:32N 51°41' E 004°35'0 0.0
2015-Jun-30 05:29N 51°41' E 004°35'0 0.0
2015-Jun-30 04:29N 51°41' E 004°35'0 0.0
2015-Jun-30 03:29N 51°41' E 004°35'0 0.0
2015-Jun-30 02:32N 51°41' E 004°35'0 0.0
2015-Jun-30 01:32N 51°41' E 004°35'0 0.0
2015-Jun-30 00:26N 51°41' E 004°35'0 0.1
2015-Jun-29 23:33N 51°41' E 004°36'6 6.4
2015-Jun-29 22:34N 51°48' E 004°37'8 7.5
2015-Jun-29 21:33N 51°50' E 004°26'8 7.6
2015-Jun-29 20:34N 51°54' E 004°16'8 8.4
2015-Jun-29 19:34N 51°59' E 004°05'8 8.5
2015-Jun-29 18:34N 52°01' E 003°51'10 9.7
2015-Jun-29 17:34N 52°11' E 003°46'1111.2
2015-Jun-29 16:33N 52°22' E 003°48'1010.5
2015-Jun-29 15:33N 52°32' E 003°52'10 9.8
2015-Jun-29 14:33N 52°42' E 003°55'9 9.4
2015-Jun-29 13:33N 52°51' E 003°58'9 9.1
2015-Jun-29 12:33N 52°59' E 004°03'1010.2
2015-Jun-29 11:34N 53°06' E 004°16'1110.7
2015-Jun-29 10:33N 53°15' E 004°26'1111.3
2015-Jun-29 09:33N 53°26' E 004°33'1111.3
2015-Jun-29 08:33N 53°36' E 004°40'1110.9
2015-Jun-29 07:34N 53°46' E 004°46'1010.5
2015-Jun-29 06:34N 53°56' E 004°52'1110.2
2015-Jun-29 05:31N 54°06' E 004°58'1110.5
2015-Jun-29 04:29N 54°17' E 004°58'  

Dump ship's entire track history